Terminal Aerodrome Forecast
Issued by NWS

Home | Current Version | Previous Version | Text Only | Print | Product List | Glossary On
Versions: 1 2 3 4 5 6 7 8 9 10 11 12 13
000
FTAK31 PAJN 212001 AAA
TAFAGY
TAF AMD
PAGY 212001Z 2120/2218 05004KT P6SM BKN060
     FM212200 05012KT P6SM BKN060
     FM220300 04005KT P6SM VCSH OVC050
      AMD LTD TO CLD VIS AND WIND=

USA.gov is the U.S. government's official web portal to all federal, state and local government web resources and services.